createdAt,value
2018-02-11T00:00:39.312Z,997.31
2018-02-11T00:01:39.278Z,997.33
2018-02-11T00:02:39.247Z,997.33
2018-02-11T00:03:39.217Z,997.27
2018-02-11T00:04:39.186Z,997.21
2018-02-11T00:05:39.157Z,997.21
2018-02-11T00:06:39.129Z,997.12
2018-02-11T00:07:39.096Z,997.18
2018-02-11T00:08:39.066Z,997.13
2018-02-11T00:09:39.036Z,997.04
2018-02-11T00:10:39.004Z,997.05
2018-02-11T00:11:38.974Z,997.07
2018-02-11T00:12:38.953Z,997.03
2018-02-11T00:13:38.914Z,997
2018-02-11T00:14:38.882Z,997.04
2018-02-11T00:15:38.852Z,996.98
2018-02-11T00:16:38.824Z,996.91
2018-02-11T00:17:38.789Z,997
2018-02-11T00:18:38.759Z,997.02
2018-02-11T00:19:38.729Z,996.93
2018-02-11T00:20:38.700Z,996.93
2018-02-11T00:21:38.668Z,996.93
2018-02-11T00:22:38.638Z,996.89
2018-02-11T00:23:38.607Z,996.86
2018-02-11T00:24:38.577Z,996.84
2018-02-11T00:25:38.546Z,996.84
2018-02-11T00:26:38.515Z,996.82
2018-02-11T00:27:38.485Z,996.8
2018-02-11T00:28:38.453Z,996.81
2018-02-11T00:29:38.423Z,996.82
2018-02-11T00:30:38.394Z,996.75
2018-02-11T00:31:38.362Z,996.76
2018-02-11T00:32:38.332Z,996.74
2018-02-11T00:33:38.302Z,996.67
2018-02-11T00:34:38.270Z,996.7
2018-02-11T00:35:38.240Z,996.65
2018-02-11T00:36:38.210Z,996.66
2018-02-11T00:37:38.180Z,996.6
2018-02-11T00:38:38.148Z,996.7
2018-02-11T00:39:38.117Z,996.58
2018-02-11T00:40:38.089Z,996.59
2018-02-11T00:41:38.058Z,996.59
2018-02-11T00:42:38.028Z,996.55
2018-02-11T00:43:37.999Z,996.54
2018-02-11T00:44:37.965Z,996.44
2018-02-11T00:45:37.935Z,996.45
2018-02-11T00:46:37.907Z,996.52
2018-02-11T00:47:37.875Z,996.47
2018-02-11T00:48:37.844Z,996.5
2018-02-11T00:49:37.815Z,996.51
2018-02-11T00:50:37.784Z,996.5
2018-02-11T00:51:37.753Z,996.48
2018-02-11T00:52:37.724Z,996.46
2018-02-11T00:53:37.694Z,996.46
2018-02-11T00:54:37.662Z,996.39
2018-02-11T00:55:37.633Z,996.35
2018-02-11T00:56:37.601Z,996.34
2018-02-11T00:57:37.572Z,996.3
2018-02-11T00:58:37.548Z,996.2
2018-02-11T00:59:37.510Z,996.19
2018-02-11T01:00:37.480Z,996.24
2018-02-11T01:01:37.450Z,996.08
2018-02-11T01:02:37.419Z,996.05
2018-02-11T01:03:37.390Z,996.24
2018-02-11T01:04:37.360Z,996.13
2018-02-11T01:05:37.329Z,996.14
2018-02-11T01:06:37.299Z,996.14
2018-02-11T01:07:37.268Z,996.04
2018-02-11T01:08:37.239Z,996.09
2018-02-11T01:09:37.207Z,996.16
2018-02-11T01:10:37.178Z,996.04
2018-02-11T01:11:37.147Z,996.1
2018-02-11T01:12:37.116Z,996.05
2018-02-11T01:13:37.086Z,996.03
2018-02-11T01:14:37.059Z,995.96
2018-02-11T01:15:37.026Z,995.99
2018-02-11T01:16:36.994Z,995.94
2018-02-11T01:17:36.965Z,995.93
2018-02-11T01:18:36.934Z,995.99
2018-02-11T01:19:36.905Z,995.95
2018-02-11T01:20:36.873Z,995.9
2018-02-11T01:21:36.843Z,995.91
2018-02-11T01:22:36.814Z,995.83
2018-02-11T01:23:36.783Z,995.92
2018-02-11T01:24:36.752Z,995.72
2018-02-11T01:25:36.722Z,995.8
2018-02-11T01:26:36.692Z,995.74
2018-02-11T01:27:36.661Z,995.65
2018-02-11T01:28:36.632Z,995.65
2018-02-11T01:29:36.602Z,995.74
2018-02-11T01:30:36.572Z,995.62
2018-02-11T01:31:36.541Z,995.66
2018-02-11T01:32:36.512Z,995.67
2018-02-11T01:33:36.481Z,995.61
2018-02-11T01:34:36.450Z,995.67
2018-02-11T01:35:36.420Z,995.52
2018-02-11T01:36:36.391Z,995.47
2018-02-11T01:37:36.359Z,995.46
2018-02-11T01:38:36.329Z,995.45
2018-02-11T01:39:36.299Z,995.42
2018-02-11T01:40:36.267Z,995.38
2018-02-11T01:41:36.238Z,995.37
2018-02-11T01:42:36.208Z,995.39
2018-02-11T01:43:36.178Z,995.28
2018-02-11T01:44:36.148Z,995.3
2018-02-11T01:45:36.117Z,995.2
2018-02-11T01:46:36.088Z,995.26
2018-02-11T01:47:36.056Z,995.26
2018-02-11T01:48:36.026Z,995.09
2018-02-11T01:49:35.993Z,995.1
2018-02-11T01:50:35.964Z,995.06
2018-02-11T01:51:35.932Z,994.95
2018-02-11T01:52:35.901Z,995
2018-02-11T01:53:35.871Z,994.94
2018-02-11T01:54:35.840Z,994.84
2018-02-11T01:55:35.811Z,994.93
2018-02-11T01:56:35.778Z,994.9
2018-02-11T01:57:35.751Z,994.83
2018-02-11T01:58:35.720Z,994.88
2018-02-11T01:59:35.691Z,994.71
2018-02-11T02:00:35.656Z,994.79
2018-02-11T02:01:35.629Z,994.82
2018-02-11T02:02:35.596Z,994.78
2018-02-11T02:03:35.565Z,994.76
2018-02-11T02:04:35.534Z,994.64
2018-02-11T02:05:35.503Z,994.6
2018-02-11T02:06:35.474Z,994.66
2018-02-11T02:07:35.441Z,994.55
2018-02-11T02:08:35.411Z,994.54
2018-02-11T02:09:35.381Z,994.48
2018-02-11T02:10:35.352Z,994.32
2018-02-11T02:11:35.319Z,994.39
2018-02-11T02:12:35.289Z,994.42
2018-02-11T02:13:35.260Z,994.31
2018-02-11T02:14:35.228Z,994.22
2018-02-11T02:15:35.197Z,994.27
2018-02-11T02:16:35.166Z,994.26
2018-02-11T02:17:35.136Z,994.23
2018-02-11T02:18:35.106Z,994.24
2018-02-11T02:19:35.075Z,994.17
2018-02-11T02:20:35.045Z,994.12
2018-02-11T02:21:35.013Z,994.08
2018-02-11T02:22:34.985Z,994.05
2018-02-11T02:23:34.953Z,994.04
2018-02-11T02:24:34.920Z,993.99
2018-02-11T02:25:34.891Z,993.9
2018-02-11T02:26:34.860Z,993.86
2018-02-11T02:27:34.829Z,993.87
2018-02-11T02:28:34.799Z,993.92
2018-02-11T02:29:34.766Z,993.84
2018-02-11T02:30:34.737Z,993.91
2018-02-11T02:31:34.707Z,993.81
2018-02-11T02:32:34.677Z,993.81
2018-02-11T02:33:34.644Z,993.72
2018-02-11T02:34:34.672Z,993.77
2018-02-11T02:35:34.583Z,993.72
2018-02-11T02:36:34.561Z,993.7
2018-02-11T02:37:34.523Z,993.66
2018-02-11T02:38:34.491Z,993.54
2018-02-11T02:39:34.461Z,993.54
2018-02-11T02:40:34.429Z,993.49
2018-02-11T02:41:34.399Z,993.45
2018-02-11T02:42:34.369Z,993.44
2018-02-11T02:43:34.339Z,993.34
2018-02-11T02:44:34.309Z,993.32
2018-02-11T02:45:34.277Z,993.28
2018-02-11T02:46:34.246Z,993.31
2018-02-11T02:47:34.214Z,993.22
2018-02-11T02:48:34.185Z,993.22
2018-02-11T02:49:34.157Z,993.23
2018-02-11T02:50:34.123Z,993.19
2018-02-11T02:51:34.092Z,993.02
2018-02-11T02:52:34.061Z,993.04
2018-02-11T02:53:34.032Z,992.99
2018-02-11T02:54:34.002Z,992.88
2018-02-11T02:55:33.970Z,992.99
2018-02-11T02:56:33.940Z,992.93
2018-02-11T02:57:33.909Z,992.95
2018-02-11T02:58:33.877Z,992.78
2018-02-11T02:59:33.848Z,992.83
2018-02-11T03:00:33.817Z,992.78
2018-02-11T03:01:33.788Z,992.77
2018-02-11T03:02:33.755Z,992.64
2018-02-11T03:03:33.725Z,992.61
2018-02-11T03:04:33.698Z,992.57
2018-02-11T03:05:33.666Z,992.51
2018-02-11T03:06:33.633Z,992.41
2018-02-11T03:07:33.604Z,992.45
2018-02-11T03:08:33.573Z,992.37
2018-02-11T03:09:33.541Z,992.38
2018-02-11T03:10:33.511Z,992.4
2018-02-11T03:11:33.480Z,992.32
2018-02-11T03:12:33.455Z,992.34
2018-02-11T03:13:33.420Z,992.25
2018-02-11T03:14:33.390Z,992.15
2018-02-11T03:15:33.359Z,992.07
2018-02-11T03:16:33.331Z,992.1
2018-02-11T03:17:33.299Z,992.06
2018-02-11T03:18:33.268Z,991.96
2018-02-11T03:19:33.238Z,991.93
2018-02-11T03:20:33.209Z,991.9
2018-02-11T03:21:33.176Z,991.93
2018-02-11T03:22:33.148Z,991.89
2018-02-11T03:23:33.117Z,991.71
2018-02-11T03:24:33.086Z,991.69
2018-02-11T03:25:33.055Z,991.78
2018-02-11T03:26:33.026Z,991.69
2018-02-11T03:27:32.994Z,991.75
2018-02-11T03:28:32.965Z,991.69
2018-02-11T03:29:32.933Z,991.65
2018-02-11T03:30:32.904Z,991.66
2018-02-11T03:31:32.872Z,991.66
2018-02-11T03:32:32.841Z,991.64
2018-02-11T03:33:32.812Z,991.46
2018-02-11T03:34:32.785Z,991.54
2018-02-11T03:35:32.752Z,991.5
2018-02-11T03:36:32.720Z,991.45
2018-02-11T03:37:32.692Z,991.4
2018-02-11T03:38:32.660Z,991.29
2018-02-11T03:39:32.629Z,991.34
2018-02-11T03:40:32.600Z,991.28
2018-02-11T03:41:32.570Z,991.37
2018-02-11T03:42:32.538Z,991.29
2018-02-11T03:43:32.509Z,991.33
2018-02-11T03:44:32.479Z,991.33
2018-02-11T03:45:32.450Z,991.26
2018-02-11T03:46:32.419Z,991.2
2018-02-11T03:47:32.395Z,991.23
2018-02-11T03:48:32.359Z,991.26
2018-02-11T03:49:32.328Z,990.95
2018-02-11T03:50:32.298Z,991.18
2018-02-11T03:51:32.269Z,991.09
2018-02-11T03:52:32.239Z,990.87
2018-02-11T03:53:32.208Z,991.22
2018-02-11T03:54:32.178Z,991.02
2018-02-11T03:55:32.149Z,991.05
2018-02-11T03:56:32.119Z,990.93
2018-02-11T03:57:32.086Z,990.96
2018-02-11T03:58:32.058Z,990.75
2018-02-11T03:59:32.028Z,990.95
2018-02-11T04:00:31.996Z,990.85
2018-02-11T04:01:31.973Z,990.83
2018-02-11T04:02:31.937Z,990.88
2018-02-11T04:03:31.907Z,990.93
2018-02-11T04:04:31.875Z,990.87
2018-02-11T04:05:31.847Z,990.76
2018-02-11T04:06:31.816Z,990.8
2018-02-11T04:07:31.831Z,990.6
2018-02-11T04:08:31.756Z,990.58
2018-02-11T04:09:31.725Z,990.58
2018-02-11T04:10:31.696Z,990.54
2018-02-11T04:11:31.665Z,990.58
2018-02-11T04:12:31.634Z,990.57
2018-02-11T04:13:31.605Z,990.62
2018-02-11T04:14:31.575Z,990.63
2018-02-11T04:15:31.543Z,990.58
2018-02-11T04:16:31.513Z,990.5
2018-02-11T04:17:31.482Z,990.53
2018-02-11T04:18:31.452Z,990.6
2018-02-11T04:19:31.421Z,990.5
2018-02-11T04:20:31.390Z,990.45
2018-02-11T04:21:31.361Z,990.43
2018-02-11T04:22:31.329Z,990.47
2018-02-11T04:23:31.300Z,990.36
2018-02-11T04:24:31.269Z,990.46
2018-02-11T04:25:31.239Z,990.38
2018-02-11T04:26:31.207Z,990.42
2018-02-11T04:27:31.176Z,990.48
2018-02-11T04:28:31.147Z,990.52
2018-02-11T04:29:31.116Z,990.38
2018-02-11T04:30:31.084Z,990.32
2018-02-11T04:31:31.055Z,990.3
2018-02-11T04:32:31.025Z,990.3
2018-02-11T04:33:30.993Z,990.27
2018-02-11T04:34:30.961Z,990.28
2018-02-11T04:35:30.932Z,990.24
2018-02-11T04:36:30.902Z,990.29
2018-02-11T04:37:30.870Z,990.14
2018-02-11T04:38:30.840Z,990.22
2018-02-11T04:39:30.809Z,990.16
2018-02-11T04:40:30.778Z,990.13
2018-02-11T04:41:30.748Z,990.12
2018-02-11T04:42:30.717Z,990.12
2018-02-11T04:43:30.688Z,990.13
2018-02-11T04:44:30.655Z,990.09
2018-02-11T04:45:30.625Z,990.07
2018-02-11T04:46:30.594Z,990.15
2018-02-11T04:47:30.564Z,989.97
2018-02-11T04:48:30.530Z,990.1
2018-02-11T04:49:30.500Z,990
2018-02-11T04:50:30.470Z,990.07
2018-02-11T04:51:30.439Z,990.14
2018-02-11T04:52:30.411Z,989.86
2018-02-11T04:53:30.378Z,989.86
2018-02-11T04:54:30.348Z,990.01
2018-02-11T04:55:30.317Z,989.99
2018-02-11T04:56:30.285Z,989.95
2018-02-11T04:57:30.254Z,990.03
2018-02-11T04:58:30.223Z,990.09
2018-02-11T04:59:30.193Z,990
2018-02-11T05:00:30.162Z,989.72
2018-02-11T05:01:30.132Z,989.8
2018-02-11T05:02:30.099Z,989.92
2018-02-11T05:03:30.070Z,989.86
2018-02-11T05:04:30.038Z,989.77
2018-02-11T05:05:30.012Z,989.7
2018-02-11T05:06:29.977Z,989.62
2018-02-11T05:07:29.945Z,989.61
2018-02-11T05:08:29.914Z,989.59
2018-02-11T05:09:29.884Z,989.71
2018-02-11T05:10:29.852Z,989.69
2018-02-11T05:11:29.827Z,989.57
2018-02-11T05:12:29.792Z,989.54
2018-02-11T05:13:29.761Z,989.43
2018-02-11T05:14:29.730Z,989.4
2018-02-11T05:15:29.732Z,989.28
2018-02-11T05:16:29.669Z,989.33
2018-02-11T05:17:29.637Z,989.19
2018-02-11T05:18:29.606Z,989.32
2018-02-11T05:19:29.576Z,989.24
2018-02-11T05:20:29.547Z,989.34
2018-02-11T05:21:29.531Z,989.34
2018-02-11T05:22:29.584Z,989.22
2018-02-11T05:23:29.454Z,989.3
2018-02-11T05:24:29.422Z,989.25
2018-02-11T05:25:29.393Z,989.31
2018-02-11T05:26:29.363Z,989.33
2018-02-11T05:27:29.432Z,989.23
2018-02-11T05:28:29.301Z,989.28
2018-02-11T05:29:29.271Z,989.26
2018-02-11T05:30:29.240Z,989.16
2018-02-11T05:31:29.209Z,989
2018-02-11T05:32:29.178Z,989.15
2018-02-11T05:33:29.148Z,989.13
2018-02-11T05:34:29.117Z,989.19
2018-02-11T05:35:29.086Z,988.99
2018-02-11T05:36:29.059Z,989.04
2018-02-11T05:37:29.026Z,989.09
2018-02-11T05:38:28.996Z,989.06
2018-02-11T05:39:28.964Z,989.03
2018-02-11T05:40:28.934Z,988.96
2018-02-11T05:41:28.903Z,988.93
2018-02-11T05:42:28.874Z,988.89
2018-02-11T05:43:28.842Z,988.81
2018-02-11T05:44:28.811Z,988.84
2018-02-11T05:45:28.784Z,988.88
2018-02-11T05:46:28.750Z,988.76
2018-02-11T05:47:28.719Z,988.71
2018-02-11T05:48:28.688Z,988.61
2018-02-11T05:49:28.659Z,988.78
2018-02-11T05:50:28.627Z,988.67
2018-02-11T05:51:28.596Z,988.73
2018-02-11T05:52:28.567Z,988.81
2018-02-11T05:53:28.536Z,988.86
2018-02-11T05:54:28.503Z,988.63
2018-02-11T05:55:28.474Z,988.61
2018-02-11T05:56:28.442Z,988.73
2018-02-11T05:57:28.451Z,988.88
2018-02-11T05:58:28.382Z,988.86
2018-02-11T05:59:28.351Z,988.89
2018-02-11T06:00:28.320Z,988.84
2018-02-11T06:01:28.288Z,988.7
2018-02-11T06:02:28.258Z,988.8
2018-02-11T06:03:28.228Z,988.87
2018-02-11T06:04:28.198Z,988.75
2018-02-11T06:05:28.167Z,988.54
2018-02-11T06:06:28.142Z,988.72
2018-02-11T06:07:28.106Z,988.76
2018-02-11T06:08:28.074Z,988.76
2018-02-11T06:09:28.043Z,988.75
2018-02-11T06:10:28.013Z,988.58
2018-02-11T06:11:27.983Z,988.67
2018-02-11T06:12:27.951Z,988.64
2018-02-11T06:13:27.923Z,988.68
2018-02-11T06:14:27.891Z,988.61
2018-02-11T06:15:27.862Z,988.65
2018-02-11T06:16:27.829Z,988.59
2018-02-11T06:17:27.800Z,988.52
2018-02-11T06:18:27.769Z,988.54
2018-02-11T06:19:27.738Z,988.56
2018-02-11T06:20:27.708Z,988.69
2018-02-11T06:21:27.678Z,988.63
2018-02-11T06:22:27.648Z,988.63
2018-02-11T06:23:27.616Z,988.6
2018-02-11T06:24:27.586Z,988.55
2018-02-11T06:25:27.556Z,988.61
2018-02-11T06:26:27.524Z,988.6
2018-02-11T06:27:27.495Z,988.68
2018-02-11T06:28:27.464Z,988.61
2018-02-11T06:29:27.435Z,988.45
2018-02-11T06:30:27.404Z,988.58
2018-02-11T06:31:27.374Z,988.59
2018-02-11T06:32:27.343Z,988.68
2018-02-11T06:33:27.313Z,988.61
2018-02-11T06:34:27.282Z,988.5
2018-02-11T06:35:27.252Z,988.71
2018-02-11T06:36:27.222Z,988.62
2018-02-11T06:37:27.190Z,988.63
2018-02-11T06:38:27.160Z,988.49
2018-02-11T06:39:27.129Z,988.44
2018-02-11T06:40:27.100Z,988.41
2018-02-11T06:41:27.075Z,988.45
2018-02-11T06:42:27.038Z,988.46
2018-02-11T06:43:27.008Z,988.49
2018-02-11T06:44:26.977Z,988.55
2018-02-11T06:45:26.945Z,988.53
2018-02-11T06:46:26.916Z,988.39
2018-02-11T06:47:26.886Z,988.27
2018-02-11T06:48:26.854Z,988.4
2018-02-11T06:49:26.824Z,988.33
2018-02-11T06:50:26.794Z,988.42
2018-02-11T06:51:26.764Z,988.31
2018-02-11T06:52:26.732Z,988.49
2018-02-11T06:53:26.705Z,988.32
2018-02-11T06:54:26.672Z,988.32
2018-02-11T06:55:26.643Z,988.28
2018-02-11T06:56:26.610Z,988.44
2018-02-11T06:57:26.580Z,988.35
2018-02-11T06:58:26.549Z,988.44
2018-02-11T06:59:26.518Z,988.55
2018-02-11T07:00:26.487Z,988.71
2018-02-11T07:01:26.463Z,988.58
2018-02-11T07:02:26.429Z,988.57
2018-02-11T07:03:26.397Z,988.59
2018-02-11T07:04:26.367Z,988.61
2018-02-11T07:05:26.337Z,988.59
2018-02-11T07:06:26.307Z,988.71
2018-02-11T07:07:26.276Z,988.78
2018-02-11T07:08:26.288Z,988.59
2018-02-11T07:09:26.215Z,988.68
2018-02-11T07:10:26.184Z,988.43
2018-02-11T07:11:26.153Z,988.64
2018-02-11T07:12:26.127Z,988.48
2018-02-11T07:13:26.094Z,988.28
2018-02-11T07:14:26.063Z,988.32
2018-02-11T07:15:26.033Z,988.47
2018-02-11T07:16:26.001Z,988.37
2018-02-11T07:17:25.971Z,988.53
2018-02-11T07:18:25.940Z,988.69
2018-02-11T07:19:25.912Z,988.62
2018-02-11T07:20:25.881Z,988.69
2018-02-11T07:21:25.850Z,988.48
2018-02-11T07:22:25.820Z,988.44
2018-02-11T07:23:25.789Z,988.54
2018-02-11T07:24:25.760Z,988.63
2018-02-11T07:25:25.728Z,988.64
2018-02-11T07:26:25.698Z,988.59
2018-02-11T07:27:25.668Z,988.58
2018-02-11T07:28:25.637Z,988.61
2018-02-11T07:29:25.607Z,988.52
2018-02-11T07:30:25.577Z,988.47
2018-02-11T07:31:25.546Z,988.67
2018-02-11T07:32:25.515Z,988.83
2018-02-11T07:33:25.486Z,988.72
2018-02-11T07:34:25.454Z,988.67
2018-02-11T07:35:25.425Z,988.72
2018-02-11T07:36:25.393Z,988.75
2018-02-11T07:37:25.364Z,988.67
2018-02-11T07:38:25.333Z,988.52
2018-02-11T07:39:25.303Z,988.49
2018-02-11T07:40:25.274Z,988.6
2018-02-11T07:41:25.243Z,988.7
2018-02-11T07:42:25.213Z,988.7
2018-02-11T07:43:25.182Z,988.66
2018-02-11T07:44:25.152Z,988.62
2018-02-11T07:45:25.121Z,988.72
2018-02-11T07:46:25.092Z,988.76
2018-02-11T07:47:25.060Z,988.77
2018-02-11T07:48:25.031Z,988.68
2018-02-11T07:49:25.003Z,988.68
2018-02-11T07:50:24.972Z,988.79
2018-02-11T07:51:24.940Z,988.79
2018-02-11T07:52:24.911Z,988.69
2018-02-11T07:53:24.881Z,988.78
2018-02-11T07:54:24.851Z,988.69
2018-02-11T07:55:24.820Z,988.61
2018-02-11T07:56:24.792Z,988.69
2018-02-11T07:57:24.761Z,988.69
2018-02-11T07:58:24.731Z,988.78
2018-02-11T07:59:24.700Z,988.75
2018-02-11T08:00:24.672Z,988.74
2018-02-11T08:01:24.642Z,988.73
2018-02-11T08:02:24.612Z,988.72
2018-02-11T08:03:24.584Z,988.88
2018-02-11T08:04:24.553Z,988.84
2018-02-11T08:05:24.521Z,988.81
2018-02-11T08:06:24.493Z,988.79
2018-02-11T08:07:24.463Z,988.85
2018-02-11T08:08:24.433Z,988.86
2018-02-11T08:09:24.402Z,988.9
2018-02-11T08:10:24.373Z,988.91
2018-02-11T08:11:24.344Z,988.88
2018-02-11T08:12:24.313Z,988.97
2018-02-11T08:13:24.283Z,988.96
2018-02-11T08:14:24.254Z,988.7
2018-02-11T08:15:24.230Z,988.85
2018-02-11T08:16:24.196Z,988.87
2018-02-11T08:17:24.165Z,988.98
2018-02-11T08:18:24.134Z,988.88
2018-02-11T08:19:24.105Z,988.94
2018-02-11T08:20:24.075Z,988.79
2018-02-11T08:21:24.046Z,988.92
2018-02-11T08:22:24.017Z,988.98
2018-02-11T08:23:23.985Z,988.93
2018-02-11T08:24:23.956Z,989.03
2018-02-11T08:25:23.927Z,989.08
2018-02-11T08:26:23.899Z,989.03
2018-02-11T08:27:23.867Z,989.07
2018-02-11T08:28:23.837Z,988.93
2018-02-11T08:29:23.808Z,988.95
2018-02-11T08:30:23.778Z,989.03
2018-02-11T08:31:23.749Z,989.09
2018-02-11T08:32:23.724Z,989.04
2018-02-11T08:33:23.690Z,989.1
2018-02-11T08:34:23.661Z,989.04
2018-02-11T08:35:23.631Z,989.01
2018-02-11T08:36:23.602Z,988.97
2018-02-11T08:37:23.573Z,989.01
2018-02-11T08:38:23.541Z,989.05
2018-02-11T08:39:23.513Z,989.02
2018-02-11T08:40:23.483Z,989.04
2018-02-11T08:41:23.455Z,988.97
2018-02-11T08:42:23.424Z,989.06
2018-02-11T08:43:23.396Z,989.03
2018-02-11T08:44:23.365Z,989
2018-02-11T08:45:23.345Z,989.03
2018-02-11T08:46:23.307Z,989.09
2018-02-11T08:47:23.279Z,989.11
2018-02-11T08:48:23.249Z,989.15
2018-02-11T08:49:23.218Z,989.13
2018-02-11T08:50:23.189Z,989.2
2018-02-11T08:51:23.160Z,989.06
2018-02-11T08:52:23.130Z,989.04
2018-02-11T08:53:23.100Z,989.05
2018-02-11T08:54:23.072Z,989.1
2018-02-11T08:55:23.042Z,989.11
2018-02-11T08:56:23.011Z,989.11
2018-02-11T08:57:22.981Z,989.15
2018-02-11T08:58:22.952Z,989.23
2018-02-11T08:59:22.923Z,989.2
2018-02-11T09:00:22.893Z,989.22
2018-02-11T09:01:22.864Z,989.19
2018-02-11T09:02:22.833Z,989.09
2018-02-11T09:03:22.805Z,989.07
2018-02-11T09:04:22.774Z,989.1
2018-02-11T09:05:22.745Z,989.23
2018-02-11T09:06:22.714Z,989.21
2018-02-11T09:07:22.685Z,989.22
2018-02-11T09:08:22.655Z,989.27
2018-02-11T09:09:22.626Z,989.18
2018-02-11T09:10:22.596Z,989.24
2018-02-11T09:11:22.566Z,989.2
2018-02-11T09:12:22.536Z,989.28
2018-02-11T09:13:22.507Z,989.2
2018-02-11T09:14:22.477Z,989.21
2018-02-11T09:15:22.446Z,989.25
2018-02-11T09:16:22.418Z,989.29
2018-02-11T09:17:22.389Z,989.36
2018-02-11T09:18:22.357Z,989.21
2018-02-11T09:19:22.328Z,989.29
2018-02-11T09:20:22.299Z,989.25
2018-02-11T09:21:22.270Z,989.24
2018-02-11T09:22:22.238Z,989.18
2018-02-11T09:23:22.209Z,989.26
2018-02-11T09:24:22.180Z,989.19
2018-02-11T09:25:22.151Z,989.25
2018-02-11T09:26:22.120Z,989.24
2018-02-11T09:27:22.283Z,989.17
2018-02-11T09:28:22.062Z,989.28
2018-02-11T09:29:22.034Z,989.22
2018-02-11T09:30:22.004Z,989.34
2018-02-11T09:31:21.975Z,989.3
2018-02-11T09:32:21.945Z,989.29
2018-02-11T09:33:21.916Z,989.19
2018-02-11T09:34:21.886Z,989.23
2018-02-11T09:35:21.859Z,989.24
2018-02-11T09:36:21.829Z,989.2
2018-02-11T09:37:21.800Z,989.22
2018-02-11T09:38:21.772Z,989.23
2018-02-11T09:39:21.741Z,989.26
2018-02-11T09:40:21.712Z,989.22
2018-02-11T09:41:21.683Z,989.11
2018-02-11T09:42:21.654Z,989.18
2018-02-11T09:43:21.627Z,989.24
2018-02-11T09:44:21.596Z,989.18
2018-02-11T09:45:21.568Z,989.17
2018-02-11T09:46:21.539Z,989.08
2018-02-11T09:47:21.509Z,989.18
2018-02-11T09:48:21.481Z,989.15
2018-02-11T09:49:21.451Z,989.19
2018-02-11T09:50:21.452Z,989.21
2018-02-11T09:51:21.394Z,989.2
2018-02-11T09:52:21.367Z,989.26
2018-02-11T09:53:21.338Z,989.27
2018-02-11T09:54:21.312Z,989.19
2018-02-11T09:55:21.279Z,989.25
2018-02-11T09:56:21.251Z,989.27
2018-02-11T09:57:21.225Z,989.18
2018-02-11T09:58:21.194Z,989.21
2018-02-11T09:59:21.168Z,989.13
2018-02-11T10:00:21.139Z,989.17
2018-02-11T10:01:21.112Z,989.21
2018-02-11T10:02:21.082Z,989.28
2018-02-11T10:03:21.054Z,989.33
2018-02-11T10:04:21.027Z,989.3
2018-02-11T10:05:21.004Z,989.3
2018-02-11T10:06:20.971Z,989.28
2018-02-11T10:07:20.943Z,989.3
2018-02-11T10:08:20.913Z,989.26
2018-02-11T10:09:20.886Z,989.28
2018-02-11T10:10:20.857Z,989.23
2018-02-11T10:11:20.829Z,989.34
2018-02-11T10:12:20.802Z,989.4
2018-02-11T10:13:20.773Z,989.35
2018-02-11T10:14:20.744Z,989.33
2018-02-11T10:15:20.717Z,989.33
2018-02-11T10:16:20.690Z,989.34
2018-02-11T10:17:20.661Z,989.36
2018-02-11T10:18:20.669Z,989.4
2018-02-11T10:19:20.604Z,989.31
2018-02-11T10:20:20.581Z,989.37
2018-02-11T10:21:20.553Z,989.3
2018-02-11T10:22:20.521Z,989.3
2018-02-11T10:23:20.493Z,989.31
2018-02-11T10:24:20.464Z,989.41
2018-02-11T10:25:20.438Z,989.4
2018-02-11T10:26:20.407Z,989.28
2018-02-11T10:27:20.380Z,989.36
2018-02-11T10:28:20.351Z,989.33
2018-02-11T10:29:20.324Z,989.33
2018-02-11T10:30:20.298Z,989.36
2018-02-11T10:31:20.270Z,989.27
2018-02-11T10:32:20.242Z,989.36
2018-02-11T10:33:20.219Z,989.35
2018-02-11T10:34:20.189Z,989.36
2018-02-11T10:35:20.162Z,989.35
2018-02-11T10:36:20.135Z,989.39
2018-02-11T10:37:20.108Z,989.38
2018-02-11T10:38:20.084Z,989.36
2018-02-11T10:39:20.056Z,989.39
2018-02-11T10:40:20.029Z,989.35
2018-02-11T10:41:20.005Z,989.28
2018-02-11T10:42:19.976Z,989.42
2018-02-11T10:43:19.949Z,989.3
2018-02-11T10:44:19.924Z,989.31
2018-02-11T10:45:19.900Z,989.38
2018-02-11T10:46:19.870Z,989.31
2018-02-11T10:47:19.844Z,989.38
2018-02-11T10:48:19.820Z,989.34
2018-02-11T10:49:19.793Z,989.33
2018-02-11T10:50:19.768Z,989.29
2018-02-11T10:51:19.741Z,989.31
2018-02-11T10:52:19.715Z,989.33
2018-02-11T10:53:19.690Z,989.31
2018-02-11T10:54:19.663Z,989.26
2018-02-11T10:55:19.638Z,989.29
2018-02-11T10:56:19.611Z,989.28
2018-02-11T10:57:19.588Z,989.22
2018-02-11T10:58:19.560Z,989.32
2018-02-11T10:59:19.535Z,989.3
2018-02-11T11:00:19.508Z,989.34
2018-02-11T11:01:19.484Z,989.36
2018-02-11T11:02:19.458Z,989.36
2018-02-11T11:03:19.433Z,989.36
2018-02-11T11:04:19.406Z,989.32
2018-02-11T11:05:19.408Z,989.34
2018-02-11T11:06:19.354Z,989.32
2018-02-11T11:07:19.329Z,989.34
2018-02-11T11:08:19.304Z,989.28
2018-02-11T11:09:19.279Z,989.3
2018-02-11T11:10:19.253Z,989.31
2018-02-11T11:11:19.227Z,989.34
2018-02-11T11:12:19.232Z,989.27
2018-02-11T11:13:19.176Z,989.36
2018-02-11T11:14:19.150Z,989.33
2018-02-11T11:15:19.123Z,989.39
2018-02-11T11:16:19.099Z,989.36
2018-02-11T11:17:19.073Z,989.32
2018-02-11T11:18:19.047Z,989.34
2018-02-11T11:19:19.021Z,989.37
2018-02-11T11:20:18.996Z,989.36
2018-02-11T11:21:18.970Z,989.41
2018-02-11T11:22:18.943Z,989.35
2018-02-11T11:23:18.917Z,989.34
2018-02-11T11:24:18.893Z,989.37
2018-02-11T11:25:18.865Z,989.34
2018-02-11T11:26:18.848Z,989.35
2018-02-11T11:27:18.816Z,989.37
2018-02-11T11:28:18.788Z,989.36
2018-02-11T11:29:18.761Z,989.4
2018-02-11T11:30:18.735Z,989.33
2018-02-11T11:31:18.709Z,989.23
2018-02-11T11:32:18.684Z,989.23
2018-02-11T11:33:18.657Z,989.18
2018-02-11T11:34:18.631Z,989.17
2018-02-11T11:35:18.606Z,989.18
2018-02-11T11:36:18.581Z,989.25
2018-02-11T11:37:18.555Z,989.22
2018-02-11T11:38:18.531Z,989.2
2018-02-11T11:39:18.504Z,989.24
2018-02-11T11:40:18.478Z,989.17
2018-02-11T11:41:18.453Z,989.22
2018-02-11T11:42:18.427Z,989.21
2018-02-11T11:43:18.402Z,989.24
2018-02-11T11:44:18.377Z,989.32
2018-02-11T11:45:18.352Z,989.21
2018-02-11T11:46:18.327Z,989.19
2018-02-11T11:47:18.302Z,989.2
2018-02-11T11:48:18.276Z,989.14
2018-02-11T11:49:18.252Z,989.07
2018-02-11T11:50:18.237Z,989.18
2018-02-11T11:51:18.202Z,989.04
2018-02-11T11:52:18.179Z,989.18
2018-02-11T11:53:18.152Z,989.11
2018-02-11T11:54:18.129Z,989.15
2018-02-11T11:55:18.102Z,989.16
2018-02-11T11:56:18.079Z,989.17
2018-02-11T11:57:18.053Z,989.38
2018-02-11T11:58:18.030Z,989.14
2018-02-11T11:59:18.004Z,989.2
2018-02-11T12:00:17.979Z,989.25
2018-02-11T12:01:17.954Z,989.27
2018-02-11T12:02:17.929Z,989.3
2018-02-11T12:03:17.907Z,989.24
2018-02-11T12:04:17.884Z,989.18
2018-02-11T12:05:17.853Z,989.3
2018-02-11T12:06:17.828Z,989.45
2018-02-11T12:07:17.801Z,989.44
2018-02-11T12:08:17.777Z,989.56
2018-02-11T12:09:17.750Z,989.71
2018-02-11T12:10:17.724Z,989.78
2018-02-11T12:11:17.702Z,989.74
2018-02-11T12:12:17.674Z,989.85
2018-02-11T12:13:17.647Z,989.59
2018-02-11T12:14:17.618Z,989.87
2018-02-11T12:15:17.593Z,989.79
2018-02-11T12:16:17.566Z,989.83
2018-02-11T12:17:17.539Z,989.73
2018-02-11T12:18:17.512Z,989.81
2018-02-11T12:19:17.485Z,989.79
2018-02-11T12:20:17.458Z,989.86
2018-02-11T12:21:17.430Z,989.85
2018-02-11T12:22:17.402Z,989.87
2018-02-11T12:23:17.374Z,989.92
2018-02-11T12:24:17.347Z,989.83
2018-02-11T12:25:17.317Z,989.89
2018-02-11T12:26:17.290Z,989.89
2018-02-11T12:27:17.262Z,989.81
2018-02-11T12:28:17.232Z,989.8
2018-02-11T12:29:17.204Z,989.67
2018-02-11T12:30:17.177Z,989.68
2018-02-11T12:31:17.152Z,989.75